Time;durP1;ratioP1;P1;durP2;ratioP2;P2;SDS_P1;SDS_P2;PMS_P1;PMS_P2;Temp;Humidity;BMP_temperature;BMP_pressure;BME280_temperature;BME280_humidity;BME280_pressure;Samples;Min_cycle;Max_cycle;Signal;HPM_P1;HPM_P2
2022/01/17 00:02:04;;;;;;;12.38;7.60;;;19.00;44.40;;;;;;5070815;28;20043;-66
2022/01/17 00:04:29;;;;;;;14.88;7.78;;;19.00;44.50;;;;;;5072431;28;20099;-67
2022/01/17 00:06:55;;;;;;;14.07;8.38;;;19.00;44.60;;;;;;5068420;28;21150;-66
2022/01/17 00:09:22;;;;;;;13.88;8.13;;;19.00;44.60;;;;;;5064681;28;20389;-66
2022/01/17 00:11:49;;;;;;;12.68;7.93;;;19.00;44.70;;;;;;5071506;28;20430;-66
2022/01/17 00:14:18;;;;;;;12.73;8.23;;;19.00;44.70;;;;;;5068702;28;20077;-68
2022/01/17 00:16:51;;;;;;;12.48;7.88;;;18.90;44.70;;;;;;5050347;28;20443;-68
2022/01/17 00:21:48;;;;;;;12.90;7.95;;;18.90;44.60;;;;;;5067620;28;20472;-68
2022/01/17 00:24:14;;;;;;;11.27;7.07;;;18.90;44.60;;;;;;5068911;28;20035;-67
2022/01/17 00:26:39;;;;;;;10.75;7.32;;;18.90;44.50;;;;;;5070645;28;20448;-67
2022/01/17 00:29:05;;;;;;;11.27;7.45;;;18.80;44.40;;;;;;5050364;28;20029;-67
2022/01/17 00:31:31;;;;;;;12.50;7.55;;;18.80;44.40;;;;;;5071402;28;20033;-67
2022/01/17 00:33:57;;;;;;;13.27;7.15;;;18.80;44.40;;;;;;5064030;28;20404;-67
2022/01/17 00:36:23;;;;;;;11.70;7.22;;;18.80;44.40;;;;;;5065257;28;20047;-68
2022/01/17 00:38:49;;;;;;;11.98;7.47;;;18.80;44.30;;;;;;5066557;28;20032;-68
2022/01/17 00:41:14;;;;;;;10.80;6.82;;;18.80;44.30;;;;;;5069532;28;20029;-67
2022/01/17 00:43:40;;;;;;;10.27;7.15;;;18.80;44.30;;;;;;5067941;28;20066;-67
2022/01/17 00:46:06;;;;;;;11.70;7.15;;;18.80;44.30;;;;;;5071094;28;20056;-67
2022/01/17 00:48:32;;;;;;;10.25;7.00;;;18.70;45.20;;;;;;5069017;28;20396;-67
2022/01/17 00:50:57;;;;;;;9.65;6.63;;;18.70;44.10;;;;;;5067076;28;20041;-67
2022/01/17 00:53:23;;;;;;;10.40;6.78;;;18.70;44.10;;;;;;5069078;28;20021;-67
2022/01/17 00:55:49;;;;;;;10.15;6.70;;;18.60;44.10;;;;;;5067236;28;20066;-67
2022/01/17 00:58:14;;;;;;;10.10;6.40;;;18.70;44.20;;;;;;5065586;28;20063;-67
2022/01/17 01:00:41;;;;;;;11.85;6.85;;;18.60;44.10;;;;;;5065752;28;20469;-67
2022/01/17 01:03:07;;;;;;;10.80;6.32;;;18.60;44.10;;;;;;5067242;28;20025;-67
2022/01/17 01:05:34;;;;;;;10.07;6.60;;;18.60;44.10;;;;;;5068245;28;20084;-67
2022/01/17 01:08:00;;;;;;;10.75;6.45;;;18.60;44.10;;;;;;5067178;28;20108;-67
2022/01/17 01:10:25;;;;;;;9.85;6.22;;;18.60;44.10;;;;;;5066489;28;20115;-68
2022/01/17 01:12:52;;;;;;;8.80;6.10;;;18.60;44.10;;;;;;5063891;28;20371;-67
2022/01/17 01:15:32;;;;;;;9.25;6.28;;;18.60;44.10;;;;;;5068385;28;20024;-67
2022/01/17 01:18:00;;;;;;;12.05;6.50;;;18.50;44.00;;;;;;5065250;28;20476;-67
2022/01/17 01:28:49;;;;;;;8.90;6.15;;;18.50;44.10;;;;;;5064255;28;20523;-67
2022/01/17 01:31:21;;;;;;;9.18;6.20;;;18.50;44.10;;;;;;5069972;28;20049;-67
2022/01/17 01:33:54;;;;;;;9.00;6.35;;;18.40;44.10;;;;;;5068600;28;20047;-67
2022/01/17 01:36:26;;;;;;;8.73;5.93;;;18.40;44.10;;;;;;5072873;28;20028;-67
2022/01/17 01:38:52;;;;;;;12.73;5.72;;;18.40;44.10;;;;;;5063889;28;20056;-67
2022/01/17 01:41:17;;;;;;;9.23;5.78;;;18.30;44.00;;;;;;5051692;28;20056;-67
2022/01/17 01:43:43;;;;;;;7.82;5.22;;;18.30;44.00;;;;;;5065144;28;20107;-67
2022/01/17 01:46:11;;;;;;;9.18;5.70;;;18.30;44.00;;;;;;5071736;28;20041;-67
2022/01/17 01:48:37;;;;;;;9.40;6.00;;;18.40;44.10;;;;;;5060999;28;20104;-67
2022/01/17 01:51:03;;;;;;;7.32;5.70;;;18.30;45.00;;;;;;5066500;28;20028;-67
2022/01/17 01:53:29;;;;;;;8.32;5.53;;;18.30;44.00;;;;;;5066096;28;20485;-67
2022/01/17 01:55:56;;;;;;;7.95;5.85;;;18.30;44.00;;;;;;5063077;28;20032;-67
2022/01/17 01:58:24;;;;;;;8.20;5.68;;;18.30;44.00;;;;;;5066143;28;20032;-67
2022/01/17 02:00:51;;;;;;;9.13;5.65;;;18.30;44.00;;;;;;5068485;28;20032;-67
2022/01/17 02:03:17;;;;;;;8.20;5.40;;;18.20;44.00;;;;;;5061136;28;20067;-67
2022/01/17 02:05:44;;;;;;;8.48;5.78;;;18.30;44.10;;;;;;5066195;28;20387;-67
2022/01/17 02:08:10;;;;;;;7.32;5.10;;;18.30;44.00;;;;;;5067438;28;20047;-67
2022/01/17 02:10:36;;;;;;;9.07;5.60;;;18.30;44.10;;;;;;5069308;28;20036;-67
2022/01/17 02:13:01;;;;;;;8.40;5.15;;;18.20;44.00;;;;;;5069698;28;20044;-67
2022/01/17 02:15:27;;;;;;;7.95;5.28;;;18.20;44.00;;;;;;5065001;28;20021;-67
2022/01/17 02:17:55;;;;;;;7.95;5.30;;;18.20;44.00;;;;;;5066585;28;20515;-67
2022/01/17 02:20:29;;;;;;;8.48;5.70;;;18.20;44.10;;;;;;5063683;28;20435;-67
2022/01/17 02:22:55;;;;;;;8.93;5.20;;;18.20;44.10;;;;;;5064702;28;20028;-67
2022/01/17 02:25:21;;;;;;;7.38;5.10;;;18.20;44.10;;;;;;5070195;28;20404;-67
2022/01/17 02:27:47;;;;;;;6.70;5.03;;;18.20;44.10;;;;;;5067694;28;20098;-67
2022/01/17 02:30:16;;;;;;;7.50;5.07;;;18.20;44.10;;;;;;5050941;28;20067;-67
2022/01/17 02:32:42;;;;;;;8.23;4.95;;;18.10;44.10;;;;;;5066227;28;20094;-68
2022/01/17 02:35:26;;;;;;;8.82;5.45;;;18.10;44.10;;;;;;5064494;28;20504;-68
2022/01/17 02:37:52;;;;;;;7.25;5.00;;;18.10;44.00;;;;;;5066647;28;20044;-67
2022/01/17 02:40:19;;;;;;;7.43;5.05;;;18.10;44.20;;;;;;5064924;28;20025;-67
2022/01/17 02:42:51;;;;;;;7.22;5.00;;;18.10;44.10;;;;;;5065393;28;20025;-67
2022/01/17 02:45:32;;;;;;;7.00;4.63;;;18.10;44.10;;;;;;5065800;28;20032;-67
2022/01/17 02:47:59;;;;;;;7.57;4.57;;;18.00;44.10;;;;;;5067214;28;20125;-67
2022/01/17 02:50:26;;;;;;;8.75;4.70;;;18.00;44.10;;;;;;5063577;28;20025;-67
2022/01/17 02:52:51;;;;;;;7.90;5.28;;;18.00;44.10;;;;;;5068014;28;20658;-67
2022/01/17 02:55:17;;;;;;;6.47;4.40;;;18.00;44.10;;;;;;5063951;28;20100;-67
2022/01/17 02:57:42;;;;;;;7.03;4.50;;;18.00;44.10;;;;;;5067825;28;20143;-68
2022/01/17 03:00:12;;;;;;;6.68;4.55;;;18.00;44.10;;;;;;5066425;28;20100;-68
2022/01/17 03:02:37;;;;;;;7.32;4.57;;;17.90;44.10;;;;;;5049832;28;20476;-67
2022/01/17 03:05:08;;;;;;;6.40;4.30;;;17.90;44.10;;;;;;5063798;28;20043;-68
2022/01/17 03:07:34;;;;;;;9.30;4.60;;;17.90;44.10;;;;;;5071229;28;20024;-67
2022/01/17 03:10:03;;;;;;;7.30;4.55;;;17.90;44.10;;;;;;5064392;28;20037;-67
2022/01/17 03:12:30;;;;;;;6.47;4.43;;;17.90;44.10;;;;;;5067444;28;20548;-67
2022/01/17 03:14:55;;;;;;;6.35;4.65;;;17.90;44.10;;;;;;5065206;28;20033;-67
2022/01/17 03:17:21;;;;;;;6.38;4.35;;;17.80;44.00;;;;;;5065794;28;20028;-67
2022/01/17 03:19:47;;;;;;;7.10;4.72;;;17.80;44.00;;;;;;5068659;28;20033;-67
2022/01/17 03:22:12;;;;;;;7.63;4.70;;;17.80;44.10;;;;;;5062585;28;20032;-67
2022/01/17 03:24:38;;;;;;;7.18;4.78;;;17.80;44.10;;;;;;5071582;28;20021;-67
2022/01/17 03:27:04;;;;;;;6.40;4.68;;;17.80;44.10;;;;;;5066703;28;20035;-67
2022/01/17 03:29:30;;;;;;;5.88;4.07;;;17.80;44.10;;;;;;5067286;28;20025;-67
2022/01/17 03:31:56;;;;;;;4.95;4.18;;;17.80;44.20;;;;;;5068861;28;20107;-67
2022/01/17 03:34:22;;;;;;;7.20;4.10;;;17.80;44.20;;;;;;5063908;28;20115;-68
2022/01/17 03:36:48;;;;;;;5.75;4.10;;;17.80;44.20;;;;;;5063594;28;20112;-68
2022/01/17 03:39:14;;;;;;;6.22;4.22;;;17.70;44.10;;;;;;5061848;28;20434;-67
2022/01/17 03:41:40;;;;;;;6.63;3.97;;;17.70;44.20;;;;;;5067746;28;20016;-67
2022/01/17 03:44:07;;;;;;;7.43;4.47;;;17.70;44.20;;;;;;5066603;28;20487;-67
2022/01/17 03:46:32;;;;;;;5.82;4.00;;;17.70;44.20;;;;;;5068336;28;20077;-67
2022/01/17 03:48:58;;;;;;;6.88;4.25;;;17.70;44.20;;;;;;5066721;28;20426;-67
2022/01/17 03:51:24;;;;;;;6.10;3.90;;;17.70;44.20;;;;;;5068770;28;20047;-68
2022/01/17 03:53:49;;;;;;;6.32;3.97;;;17.70;44.20;;;;;;5068947;28;20048;-68
2022/01/17 03:56:16;;;;;;;7.40;3.83;;;17.70;44.40;;;;;;5071752;28;20073;-67
2022/01/17 03:58:42;;;;;;;7.95;3.85;;;17.70;44.20;;;;;;5066248;28;20032;-67
2022/01/17 04:01:09;;;;;;;5.47;3.90;;;17.60;45.20;;;;;;5067902;28;20029;-68
2022/01/17 04:03:35;;;;;;;6.95;3.70;;;17.60;44.30;;;;;;5065128;28;21786;-68
2022/01/17 04:06:01;;;;;;;6.15;4.05;;;17.60;44.30;;;;;;5069436;28;20032;-67
2022/01/17 04:08:26;;;;;;;5.40;3.70;;;17.60;44.30;;;;;;5068877;28;20450;-67
2022/01/17 04:10:52;;;;;;;5.50;3.88;;;17.60;44.30;;;;;;5066110;28;20111;-67
2022/01/17 04:13:18;;;;;;;5.45;3.50;;;17.60;44.30;;;;;;5066698;28;20029;-67
2022/01/17 04:15:44;;;;;;;5.90;3.65;;;17.60;44.40;;;;;;5069882;28;20055;-67
2022/01/17 04:18:11;;;;;;;6.05;3.75;;;17.50;44.30;;;;;;5066560;28;20039;-67
2022/01/17 04:20:37;;;;;;;5.13;3.38;;;17.50;44.30;;;;;;5070493;28;20067;-67
2022/01/17 04:23:07;;;;;;;5.78;3.47;;;17.50;44.40;;;;;;5051701;28;20033;-67
2022/01/17 04:25:34;;;;;;;5.82;3.53;;;17.50;44.40;;;;;;5070070;28;20538;-67
2022/01/17 04:28:01;;;;;;;5.15;3.35;;;17.50;44.40;;;;;;5066703;28;20499;-67
2022/01/17 04:30:28;;;;;;;5.68;3.58;;;17.50;44.40;;;;;;5068332;28;20068;-68
2022/01/17 04:32:55;;;;;;;5.00;3.28;;;17.50;44.40;;;;;;5070861;28;20025;-67
2022/01/17 04:35:21;;;;;;;4.97;3.00;;;17.40;44.40;;;;;;5065803;28;20147;-67
2022/01/17 04:37:49;;;;;;;5.65;3.25;;;17.40;44.40;;;;;;5051755;28;20029;-67
2022/01/17 04:40:16;;;;;;;5.55;3.33;;;17.40;44.40;;;;;;5068898;28;20491;-67
2022/01/17 04:42:45;;;;;;;6.47;3.42;;;17.40;44.40;;;;;;5067455;28;20013;-67
2022/01/17 04:45:14;;;;;;;5.72;3.40;;;17.40;44.50;;;;;;5063459;28;20024;-67
2022/01/17 04:47:43;;;;;;;5.15;3.30;;;17.40;44.50;;;;;;5067628;28;20415;-67
2022/01/17 04:50:13;;;;;;;5.05;3.22;;;17.30;44.50;;;;;;5071003;28;20060;-68
2022/01/17 04:52:39;;;;;;;5.47;3.33;;;17.30;44.50;;;;;;5066904;28;20049;-68
2022/01/17 04:55:08;;;;;;;5.40;3.20;;;17.30;44.50;;;;;;5068659;28;20040;-68
2022/01/17 04:57:34;;;;;;;3.90;2.80;;;17.30;44.50;;;;;;5067895;28;20078;-67
2022/01/17 05:00:00;;;;;;;5.63;3.35;;;17.30;44.60;;;;;;5068463;28;20021;-67
2022/01/17 05:02:27;;;;;;;4.70;2.95;;;17.30;44.60;;;;;;5067461;28;20164;-67
2022/01/17 05:04:53;;;;;;;4.55;3.58;;;17.30;45.50;;;;;;5067755;28;20500;-68
2022/01/17 05:07:18;;;;;;;5.15;3.20;;;17.20;44.60;;;;;;5068374;28;20051;-68
2022/01/17 05:09:46;;;;;;;4.75;2.70;;;17.30;44.60;;;;;;5064738;28;20146;-68
2022/01/17 05:12:12;;;;;;;5.18;3.08;;;17.20;44.60;;;;;;5068367;28;20032;-68
2022/01/17 05:14:42;;;;;;;4.45;2.67;;;17.20;44.60;;;;;;5066112;28;20040;-68
2022/01/17 05:19:58;;;;;;;5.03;3.00;;;17.20;44.70;;;;;;5067484;28;20039;-67
2022/01/17 05:22:26;;;;;;;4.38;2.78;;;17.20;44.70;;;;;;5065452;28;20040;-67
2022/01/17 05:24:53;;;;;;;5.10;2.80;;;17.20;44.70;;;;;;5070026;28;20031;-67
2022/01/17 05:27:18;;;;;;;4.60;2.30;;;17.20;44.70;;;;;;5067246;28;20085;-67
2022/01/17 05:29:46;;;;;;;3.97;2.60;;;17.10;44.70;;;;;;5048485;28;20033;-68
2022/01/17 05:32:11;;;;;;;5.47;3.25;;;17.10;44.70;;;;;;5065898;28;20025;-68
2022/01/17 05:34:40;;;;;;;4.82;2.60;;;17.10;44.70;;;;;;5063623;28;20041;-68
2022/01/17 05:37:10;;;;;;;3.20;2.40;;;17.10;44.70;;;;;;5064079;28;20021;-68
2022/01/17 05:39:37;;;;;;;3.88;2.55;;;17.10;44.70;;;;;;5064163;28;20025;-67
2022/01/17 05:42:04;;;;;;;4.18;2.38;;;17.10;44.80;;;;;;5051364;28;20017;-66
2022/01/17 05:44:30;;;;;;;4.47;2.72;;;17.10;44.70;;;;;;5063056;28;20483;-67
2022/01/17 05:46:56;;;;;;;5.05;2.58;;;17.10;44.80;;;;;;5071503;28;20016;-67
2022/01/17 05:49:22;;;;;;;4.97;3.08;;;17.10;44.80;;;;;;5065525;28;20383;-67
2022/01/17 05:51:48;;;;;;;4.15;2.30;;;17.10;44.80;;;;;;5065590;28;20511;-67
2022/01/17 05:54:14;;;;;;;4.13;2.40;;;17.00;45.70;;;;;;5067873;28;20473;-67
2022/01/17 05:56:39;;;;;;;3.85;2.60;;;17.00;44.70;;;;;;5063741;28;20025;-67
2022/01/17 05:59:05;;;;;;;4.85;2.63;;;17.00;44.70;;;;;;5068177;28;20066;-67
2022/01/17 06:01:31;;;;;;;4.10;2.17;;;17.00;44.70;;;;;;5066082;28;21730;-67
2022/01/17 06:03:56;;;;;;;3.83;2.22;;;17.00;44.70;;;;;;5050327;28;20029;-67
2022/01/17 06:06:22;;;;;;;4.93;2.22;;;17.00;44.70;;;;;;5064481;28;20112;-67
2022/01/17 06:08:48;;;;;;;3.22;2.33;;;17.00;44.80;;;;;;5065506;28;20516;-67
2022/01/17 06:11:13;;;;;;;3.58;2.08;;;17.00;44.80;;;;;;5064559;28;20056;-67
2022/01/17 06:13:39;;;;;;;4.28;2.67;;;17.00;44.90;;;;;;5064381;28;20024;-67
2022/01/17 06:16:05;;;;;;;3.92;2.30;;;16.90;44.80;;;;;;5068643;28;20040;-67
2022/01/17 06:18:30;;;;;;;3.90;2.28;;;16.90;44.80;;;;;;5064748;28;20021;-67
2022/01/17 06:20:56;;;;;;;4.03;2.28;;;16.90;44.80;;;;;;5070710;28;20471;-67
2022/01/17 06:23:24;;;;;;;4.80;2.30;;;16.90;44.80;;;;;;5063858;28;20100;-68
2022/01/17 06:25:50;;;;;;;4.30;2.30;;;16.90;44.80;;;;;;5070004;28;20025;-68
2022/01/17 06:28:15;;;;;;;4.72;2.30;;;16.90;44.80;;;;;;5069579;28;20035;-67
2022/01/17 06:30:41;;;;;;;3.95;2.22;;;16.90;44.90;;;;;;5065916;28;20082;-68
2022/01/17 06:33:07;;;;;;;3.35;2.33;;;16.90;44.90;;;;;;5065351;28;20053;-67
2022/01/17 06:35:32;;;;;;;4.15;2.10;;;16.90;44.90;;;;;;5065763;28;20032;-67
2022/01/17 06:37:58;;;;;;;4.07;2.30;;;16.90;44.90;;;;;;5069297;28;20048;-67
2022/01/17 06:40:24;;;;;;;3.85;2.10;;;16.80;44.90;;;;;;5065322;28;20442;-67
2022/01/17 06:42:50;;;;;;;4.28;2.42;;;16.80;44.80;;;;;;5067406;28;20020;-68
2022/01/17 06:45:18;;;;;;;5.10;2.20;;;16.80;44.80;;;;;;5063811;28;20112;-67
2022/01/17 06:47:44;;;;;;;3.05;2.13;;;16.80;44.90;;;;;;5062593;28;20027;-67
2022/01/17 06:50:11;;;;;;;4.47;2.30;;;16.80;44.90;;;;;;5066248;28;20094;-67
2022/01/17 06:52:38;;;;;;;4.80;2.28;;;16.80;44.90;;;;;;5050253;28;20024;-67
2022/01/17 06:55:05;;;;;;;4.47;2.20;;;16.80;44.90;;;;;;5048051;28;20040;-67
2022/01/17 06:57:30;;;;;;;4.47;2.42;;;16.80;44.90;;;;;;5066743;28;20368;-67
2022/01/17 06:59:56;;;;;;;5.05;2.47;;;16.70;44.90;;;;;;5065912;28;20025;-67
2022/01/17 07:02:22;;;;;;;4.50;2.42;;;16.70;44.90;;;;;;5063853;28;20237;-67
2022/01/17 07:04:47;;;;;;;5.75;2.55;;;16.80;44.90;;;;;;5067701;28;20036;-68
2022/01/17 07:07:13;;;;;;;3.75;2.20;;;16.70;44.90;;;;;;5064903;28;20037;-68
2022/01/17 07:09:39;;;;;;;4.45;2.40;;;16.70;44.90;;;;;;5066231;28;20411;-67
2022/01/17 07:12:05;;;;;;;4.20;2.17;;;16.70;45.00;;;;;;5062173;28;20373;-67
2022/01/17 07:14:31;;;;;;;4.43;2.30;;;16.70;45.00;;;;;;5061898;28;20452;-67
2022/01/17 07:16:58;;;;;;;3.80;2.35;;;16.70;45.00;;;;;;5063014;28;20067;-68
2022/01/17 07:19:24;;;;;;;5.45;2.40;;;16.70;45.00;;;;;;5066270;28;20028;-67
2022/01/17 07:21:51;;;;;;;4.20;2.55;;;16.70;45.00;;;;;;5062275;28;20052;-67
2022/01/17 07:24:17;;;;;;;3.63;2.40;;;16.70;45.00;;;;;;5071366;28;20424;-68
2022/01/17 07:26:43;;;;;;;7.15;4.15;;;16.60;44.90;;;;;;5075119;28;20169;-70
2022/01/17 07:29:09;;;;;;;10.95;4.68;;;16.60;44.60;;;;;;5072203;28;20036;-69
2022/01/17 07:31:36;;;;;;;11.05;5.53;;;16.00;44.80;;;;;;5071133;28;20013;-69
2022/01/17 07:34:02;;;;;;;9.20;5.72;;;15.50;47.00;;;;;;5048842;28;20049;-70
2022/01/17 07:36:29;;;;;;;10.27;5.53;;;15.00;47.20;;;;;;5052009;28;20025;-72
2022/01/17 07:38:55;;;;;;;13.30;4.97;;;14.60;48.20;;;;;;5046179;28;20035;-72
2022/01/17 07:41:21;;;;;;;8.90;3.90;;;14.50;48.80;;;;;;5068681;28;20036;-72
2022/01/17 07:43:48;;;;;;;9.48;4.47;;;14.50;49.30;;;;;;5074353;28;20017;-72
2022/01/17 07:46:24;;;;;;;9.50;4.30;;;14.50;49.60;;;;;;5058523;28;20443;-69
2022/01/17 07:51:23;;;;;;;;;;;14.60;49.70;;;;;;5057170;28;20033;-70
2022/01/17 07:53:49;;;;;;;8.27;3.63;;;14.60;50.40;;;;;;5073080;28;19969;-69
2022/01/17 07:56:15;;;;;;;8.98;4.25;;;14.60;50.10;;;;;;5053984;28;20032;-69
2022/01/17 07:58:41;;;;;;;8.40;4.05;;;14.60;50.00;;;;;;5072760;28;20024;-69
2022/01/17 08:01:08;;;;;;;8.23;4.10;;;14.70;50.00;;;;;;5044043;28;20029;-69
2022/01/17 08:03:34;;;;;;;7.13;3.60;;;14.70;50.00;;;;;;5055936;28;20025;-69
2022/01/17 08:06:01;;;;;;;6.55;3.53;;;14.80;50.10;;;;;;5056187;28;20052;-69
2022/01/17 08:08:27;;;;;;;6.15;3.60;;;14.90;50.90;;;;;;5055746;28;20044;-69
2022/01/17 08:10:53;;;;;;;5.32;3.30;;;15.00;49.80;;;;;;5055894;28;20029;-69
2022/01/17 08:13:19;;;;;;;6.97;3.10;;;15.00;49.50;;;;;;5055567;28;20033;-71
2022/01/17 08:15:46;;;;;;;5.25;3.40;;;15.10;49.60;;;;;;5060855;28;20101;-69
2022/01/17 08:18:12;;;;;;;5.78;3.50;;;15.20;49.50;;;;;;5075312;28;20059;-69
2022/01/17 08:20:38;;;;;;;8.15;3.72;;;15.30;49.30;;;;;;5075838;28;20055;-69
2022/01/17 08:23:04;;;;;;;9.40;5.45;;;15.30;49.30;;;;;;5075679;28;20052;-70
2022/01/17 08:25:30;;;;;;;6.47;3.65;;;15.40;48.80;;;;;;5075654;28;20391;-69
2022/01/17 08:27:55;;;;;;;5.20;2.55;;;15.30;49.10;;;;;;5075832;28;20063;-70
2022/01/17 08:30:23;;;;;;;4.68;2.30;;;15.60;50.00;;;;;;5075466;28;20046;-70
2022/01/17 08:32:50;;;;;;;5.32;2.55;;;15.90;49.50;;;;;;5071227;28;20020;-68
2022/01/17 08:35:16;;;;;;;6.10;2.70;;;16.30;48.90;;;;;;5074437;28;20483;-70
2022/01/17 08:37:42;;;;;;;4.82;2.80;;;16.50;48.20;;;;;;5055099;28;20037;-68
2022/01/17 08:40:09;;;;;;;4.82;2.47;;;16.80;47.70;;;;;;5074561;28;20028;-70
2022/01/17 08:42:37;;;;;;;5.53;2.90;;;17.00;47.20;;;;;;5075172;28;20017;-69
2022/01/17 08:45:09;;;;;;;5.57;2.55;;;17.20;46.80;;;;;;5077118;28;20032;-66
2022/01/17 08:47:34;;;;;;;5.18;2.63;;;17.40;46.60;;;;;;5076085;28;20063;-70
2022/01/17 08:50:01;;;;;;;4.18;2.38;;;17.60;46.40;;;;;;5056739;28;20063;-67
2022/01/17 08:52:26;;;;;;;3.78;2.20;;;17.70;46.10;;;;;;5046737;28;20037;-69
2022/01/17 08:54:53;;;;;;;4.00;1.98;;;17.90;45.80;;;;;;5054220;28;20036;-68
2022/01/17 08:57:19;;;;;;;4.47;2.78;;;18.00;45.50;;;;;;5054831;28;20116;-70
2022/01/17 08:59:45;;;;;;;4.75;2.55;;;18.10;45.20;;;;;;5055205;28;20032;-70
2022/01/17 09:02:12;;;;;;;3.25;2.03;;;18.30;44.90;;;;;;5054888;28;20029;-70
2022/01/17 09:04:41;;;;;;;5.70;2.53;;;18.40;44.60;;;;;;5054868;28;20024;-70
2022/01/17 09:07:11;;;;;;;6.78;2.42;;;18.50;44.40;;;;;;5063200;28;20145;-70
2022/01/17 09:09:38;;;;;;;4.18;2.10;;;18.60;44.20;;;;;;5074807;28;20025;-66
2022/01/17 09:12:06;;;;;;;5.25;2.45;;;18.70;44.00;;;;;;5074848;28;20431;-70
2022/01/17 09:14:32;;;;;;;4.57;2.33;;;18.80;43.70;;;;;;5056347;28;20029;-67
2022/01/17 09:16:57;;;;;;;3.90;2.10;;;18.90;43.50;;;;;;5074885;28;20040;-67
2022/01/17 09:19:23;;;;;;;3.35;2.17;;;19.00;43.30;;;;;;5074727;28;20028;-69
2022/01/17 09:21:49;;;;;;;3.33;2.28;;;19.10;43.10;;;;;;5075036;28;20079;-71
2022/01/17 09:24:15;;;;;;;3.30;1.90;;;19.20;43.00;;;;;;5074247;28;20043;-70
2022/01/17 09:26:40;;;;;;;5.18;2.38;;;19.30;42.90;;;;;;5060548;28;20353;-69
2022/01/17 09:29:06;;;;;;;4.80;2.20;;;19.40;42.70;;;;;;5053500;28;20033;-67
2022/01/17 09:31:32;;;;;;;4.40;2.10;;;19.40;42.70;;;;;;5062557;28;20428;-67
2022/01/17 09:33:57;;;;;;;4.85;2.05;;;19.50;42.60;;;;;;5037242;28;20049;-66
2022/01/17 09:36:25;;;;;;;2.88;1.63;;;19.50;42.50;;;;;;5061945;28;20434;-66
2022/01/17 09:38:52;;;;;;;4.43;2.10;;;19.60;42.50;;;;;;5064027;28;20445;-69
2022/01/17 09:41:18;;;;;;;4.32;2.08;;;19.70;42.30;;;;;;5063983;28;20050;-65
2022/01/17 09:43:43;;;;;;;3.47;2.10;;;19.70;42.10;;;;;;5072885;28;20029;-68
2022/01/17 09:46:10;;;;;;;3.55;2.08;;;19.80;42.10;;;;;;5072702;28;20039;-67
2022/01/17 09:48:38;;;;;;;4.07;2.50;;;19.80;42.10;;;;;;5054622;28;20040;-67
2022/01/17 09:51:19;;;;;;;3.13;1.90;;;19.80;42.00;;;;;;5052752;28;20037;-67
2022/01/17 09:53:46;;;;;;;3.38;2.22;;;19.80;42.00;;;;;;5041524;28;20028;-68
2022/01/17 09:56:13;;;;;;;2.78;1.85;;;19.80;42.00;;;;;;5066015;28;20029;-69
2022/01/17 09:58:40;;;;;;;4.35;2.10;;;19.90;41.90;;;;;;5065470;28;20384;-69
2022/01/17 10:01:07;;;;;;;3.08;2.10;;;19.90;41.90;;;;;;5052799;28;20086;-67
2022/01/17 10:03:33;;;;;;;3.50;2.15;;;19.90;41.80;;;;;;5052829;28;20159;-67
2022/01/17 10:05:59;;;;;;;3.65;1.60;;;20.00;41.90;;;;;;5066331;28;20111;-66
2022/01/17 10:08:24;;;;;;;3.85;2.08;;;20.00;41.90;;;;;;5072568;28;20079;-66
2022/01/17 10:11:04;;;;;;;2.97;1.98;;;20.00;41.90;;;;;;5072540;28;20158;-68
2022/01/17 10:13:45;;;;;;;3.03;1.77;;;20.00;41.90;;;;;;5072574;28;20428;-68
2022/01/17 10:16:14;;;;;;;3.63;1.95;;;20.00;41.70;;;;;;5068766;28;20032;-68
2022/01/17 10:18:45;;;;;;;4.25;1.98;;;20.00;41.70;;;;;;5072244;28;20032;-68
2022/01/17 10:21:25;;;;;;;3.43;1.97;;;20.10;41.80;;;;;;5053421;28;20013;-67
2022/01/17 10:35:24;;;;;;;3.40;2.03;;;20.00;42.00;;;;;;5052126;28;20051;-69
2022/01/17 10:38:08;;;;;;;5.07;2.30;;;20.00;42.00;;;;;;5051709;28;20036;-69
2022/01/17 10:40:44;;;;;;;4.00;1.95;;;20.00;42.20;;;;;;5052754;28;20046;-69
2022/01/17 10:43:45;;;;;;;4.28;2.00;;;20.00;42.30;;;;;;5054410;28;20112;-68
2022/01/17 10:46:14;;;;;;;5.28;2.15;;;20.10;42.10;;;;;;5072210;28;20490;-68
2022/01/17 10:48:45;;;;;;;5.28;2.10;;;20.00;42.20;;;;;;5070094;28;20032;-67
2022/01/17 10:51:12;;;;;;;5.60;2.30;;;20.10;42.20;;;;;;5067822;28;20111;-69
2022/01/17 10:53:40;;;;;;;5.68;2.20;;;20.10;42.20;;;;;;5052911;28;20502;-69
2022/01/17 10:56:08;;;;;;;4.68;1.98;;;20.10;42.20;;;;;;5062395;28;20035;-68
2022/01/17 10:58:37;;;;;;;4.63;2.17;;;20.10;42.20;;;;;;5065599;28;20104;-69
2022/01/17 11:01:09;;;;;;;4.60;2.13;;;20.10;42.30;;;;;;5063912;28;20455;-69
2022/01/17 11:03:35;;;;;;;4.85;1.92;;;20.10;42.10;;;;;;5068540;28;20108;-69
2022/01/17 11:06:09;;;;;;;3.28;2.08;;;20.10;42.40;;;;;;5070418;28;20357;-69
2022/01/17 11:08:36;;;;;;;3.80;2.05;;;20.10;42.40;;;;;;5076322;28;20028;-69
2022/01/17 11:11:05;;;;;;;3.97;2.15;;;20.10;42.50;;;;;;5076181;28;20411;-69
2022/01/17 11:13:33;;;;;;;5.80;2.40;;;20.10;42.60;;;;;;5074543;28;20029;-68
2022/01/17 11:16:04;;;;;;;4.43;2.15;;;20.10;42.70;;;;;;5071508;28;20437;-68
2022/01/17 11:18:31;;;;;;;4.82;2.00;;;20.20;42.60;;;;;;5065344;28;20082;-68
2022/01/17 11:20:59;;;;;;;3.45;2.00;;;20.20;42.60;;;;;;5056092;28;20112;-69
2022/01/17 11:23:26;;;;;;;5.25;2.13;;;20.20;42.70;;;;;;5075845;28;20025;-69
2022/01/17 11:25:54;;;;;;;5.40;2.33;;;20.20;42.60;;;;;;5058709;28;20021;-66
2022/01/17 11:28:23;;;;;;;4.25;1.88;;;20.20;42.90;;;;;;5055889;28;20025;-66
2022/01/17 11:30:51;;;;;;;8.57;2.50;;;20.20;43.20;;;;;;5058946;28;20025;-66
2022/01/17 11:33:17;;;;;;;6.78;2.40;;;20.20;43.30;;;;;;5071519;28;20064;-67
2022/01/17 11:35:45;;;;;;;3.55;2.20;;;20.10;43.30;;;;;;5074249;28;20028;-69
2022/01/17 11:38:15;;;;;;;3.63;1.98;;;20.10;43.20;;;;;;5063934;28;20025;-67
2022/01/17 11:40:43;;;;;;;5.50;2.38;;;20.10;43.40;;;;;;5074804;28;20036;-66
2022/01/17 11:43:33;;;;;;;4.65;2.20;;;20.10;43.60;;;;;;5075575;28;20379;-67
2022/01/17 11:46:00;;;;;;;4.45;2.35;;;20.10;43.80;;;;;;5068223;28;20032;-69
2022/01/17 11:48:30;;;;;;;7.10;2.20;;;20.10;44.10;;;;;;5071264;28;20025;-69
2022/01/17 11:50:58;;;;;;;3.90;2.10;;;20.10;44.40;;;;;;5075276;28;20028;-69
2022/01/17 11:53:27;;;;;;;5.18;2.40;;;20.10;44.40;;;;;;5060987;28;20032;-69
2022/01/17 11:55:54;;;;;;;4.45;2.22;;;20.10;44.40;;;;;;5068895;28;20021;-69
2022/01/17 11:58:41;;;;;;;3.72;2.00;;;20.10;44.40;;;;;;5071368;28;20028;-68
2022/01/17 12:01:10;;;;;;;4.10;1.95;;;20.10;44.40;;;;;;5068963;28;20165;-68
2022/01/17 12:04:03;;;;;;;4.15;2.00;;;20.10;44.50;;;;;;5075274;28;20028;-68
2022/01/17 12:06:36;;;;;;;3.92;2.33;;;20.10;44.50;;;;;;5070627;28;20372;-67
2022/01/17 12:09:21;;;;;;;3.83;2.17;;;20.00;44.50;;;;;;5057195;28;20033;-68
2022/01/17 12:12:03;;;;;;;5.28;2.00;;;20.10;44.60;;;;;;5068285;28;20028;-66
2022/01/17 12:14:33;;;;;;;5.67;2.13;;;20.00;44.50;;;;;;5068535;28;20070;-66
2022/01/17 12:17:23;;;;;;;4.25;2.00;;;20.10;44.50;;;;;;5063977;28;20037;-66
2022/01/17 12:20:17;;;;;;;4.22;1.92;;;20.10;44.50;;;;;;5062383;28;20016;-68
2022/01/17 12:22:45;;;;;;;4.75;2.42;;;20.00;44.40;;;;;;5073243;28;20029;-68
2022/01/17 12:25:30;;;;;;;7.43;2.50;;;20.00;44.50;;;;;;5063297;28;20498;-68
2022/01/17 12:28:05;;;;;;;6.15;2.33;;;20.00;44.40;;;;;;5068823;28;20492;-68
2022/01/17 12:30:50;;;;;;;2.92;1.90;;;20.00;44.40;;;;;;5055221;28;20073;-66
2022/01/17 12:33:27;;;;;;;4.43;1.90;;;20.00;44.40;;;;;;5064861;28;20064;-66
2022/01/17 12:35:57;;;;;;;4.80;2.20;;;20.10;44.40;;;;;;5063877;28;20425;-67
2022/01/17 12:39:07;;;;;;;3.92;2.15;;;20.00;44.40;;;;;;5073329;28;20032;-69
2022/01/17 12:41:35;;;;;;;5.55;2.22;;;20.10;44.10;;;;;;5058312;28;20041;-68
2022/01/17 12:44:31;;;;;;;4.90;1.95;;;20.00;44.20;;;;;;5059487;28;20078;-66
2022/01/17 12:47:01;;;;;;;4.55;2.20;;;20.00;43.90;;;;;;5073956;28;20040;-68
2022/01/17 12:49:28;;;;;;;4.53;1.80;;;20.00;44.00;;;;;;5063311;28;20100;-66
2022/01/17 12:51:57;;;;;;;5.63;1.75;;;19.90;43.90;;;;;;5058311;28;20067;-67
2022/01/17 12:54:29;;;;;;;4.05;1.98;;;20.00;43.80;;;;;;5071221;28;20028;-68
2022/01/17 12:56:56;;;;;;;6.60;1.90;;;20.00;44.80;;;;;;5067215;28;20101;-67
2022/01/17 12:59:23;;;;;;;5.53;1.90;;;19.90;43.70;;;;;;5074338;28;20298;-66
2022/01/17 13:02:01;;;;;;;4.97;2.08;;;19.90;43.60;;;;;;5069262;28;20032;-69
2022/01/17 13:04:29;;;;;;;4.65;1.63;;;20.00;43.40;;;;;;5052750;28;20033;-69
2022/01/17 13:06:55;;;;;;;4.47;1.85;;;20.00;43.40;;;;;;5072537;28;20434;-69
2022/01/17 13:09:24;;;;;;;3.00;1.90;;;20.00;43.20;;;;;;5070025;28;20051;-67
2022/01/17 13:11:52;;;;;;;3.17;1.75;;;20.10;43.20;;;;;;5073258;28;20032;-66
2022/01/17 13:14:21;;;;;;;3.10;1.50;;;20.10;43.10;;;;;;5071495;28;20033;-66
2022/01/17 13:16:48;;;;;;;4.13;1.60;;;20.10;43.00;;;;;;5070271;28;20021;-67
2022/01/17 13:19:15;;;;;;;5.90;1.92;;;20.10;42.90;;;;;;5061030;28;20471;-66